sensor_id;sensor_type;location;lat;lon;timestamp;P1;durP1;ratioP1;P2;durP2;ratioP2
55776;SDS011;54079;44.540;18.784;2024-01-15T00:02:24;3.95;;;2.50;;
55776;SDS011;54079;44.540;18.784;2024-01-15T00:04:50;3.38;;;2.08;;
55776;SDS011;54079;44.540;18.784;2024-01-15T00:07:16;4.97;;;2.50;;
55776;SDS011;54079;44.540;18.784;2024-01-15T00:09:42;3.35;;;2.10;;
55776;SDS011;54079;44.540;18.784;2024-01-15T00:12:08;4.60;;;2.67;;
55776;SDS011;54079;44.540;18.784;2024-01-15T00:14:34;6.38;;;3.92;;
55776;SDS011;54079;44.540;18.784;2024-01-15T00:17:00;5.40;;;2.90;;
55776;SDS011;54079;44.540;18.784;2024-01-15T00:19:26;2.83;;;1.55;;
55776;SDS011;54079;44.540;18.784;2024-01-15T00:21:52;2.65;;;1.63;;
55776;SDS011;54079;44.540;18.784;2024-01-15T00:24:18;2.80;;;1.83;;
55776;SDS011;54079;44.540;18.784;2024-01-15T00:26:44;2.80;;;1.83;;
55776;SDS011;54079;44.540;18.784;2024-01-15T00:29:10;4.93;;;2.65;;
55776;SDS011;54079;44.540;18.784;2024-01-15T00:31:36;3.50;;;2.40;;
55776;SDS011;54079;44.540;18.784;2024-01-15T00:34:02;4.03;;;2.40;;
55776;SDS011;54079;44.540;18.784;2024-01-15T00:36:28;5.50;;;3.20;;
55776;SDS011;54079;44.540;18.784;2024-01-15T00:38:54;3.90;;;2.55;;
55776;SDS011;54079;44.540;18.784;2024-01-15T00:41:20;3.10;;;2.03;;
55776;SDS011;54079;44.540;18.784;2024-01-15T00:43:46;3.40;;;2.13;;
55776;SDS011;54079;44.540;18.784;2024-01-15T00:46:14;4.13;;;2.92;;
55776;SDS011;54079;44.540;18.784;2024-01-15T00:48:40;3.58;;;2.42;;
55776;SDS011;54079;44.540;18.784;2024-01-15T00:51:07;4.50;;;2.20;;
55776;SDS011;54079;44.540;18.784;2024-01-15T00:53:32;3.25;;;2.03;;
55776;SDS011;54079;44.540;18.784;2024-01-15T00:55:59;3.65;;;2.50;;
55776;SDS011;54079;44.540;18.784;2024-01-15T00:58:26;4.40;;;2.70;;
55776;SDS011;54079;44.540;18.784;2024-01-15T01:00:52;2.78;;;2.17;;
55776;SDS011;54079;44.540;18.784;2024-01-15T01:03:18;4.20;;;2.45;;
55776;SDS011;54079;44.540;18.784;2024-01-15T01:05:44;3.95;;;2.60;;
55776;SDS011;54079;44.540;18.784;2024-01-15T01:08:10;3.38;;;2.05;;
55776;SDS011;54079;44.540;18.784;2024-01-15T01:10:36;3.55;;;2.10;;
55776;SDS011;54079;44.540;18.784;2024-01-15T01:13:02;4.68;;;2.47;;
55776;SDS011;54079;44.540;18.784;2024-01-15T01:15:28;3.20;;;1.95;;
55776;SDS011;54079;44.540;18.784;2024-01-15T01:17:54;1.88;;;1.38;;
55776;SDS011;54079;44.540;18.784;2024-01-15T01:20:20;3.05;;;1.80;;
55776;SDS011;54079;44.540;18.784;2024-01-15T01:22:46;3.45;;;1.90;;
55776;SDS011;54079;44.540;18.784;2024-01-15T01:25:13;4.05;;;2.10;;
55776;SDS011;54079;44.540;18.784;2024-01-15T01:27:38;2.83;;;1.80;;
55776;SDS011;54079;44.540;18.784;2024-01-15T01:30:04;2.50;;;1.83;;
55776;SDS011;54079;44.540;18.784;2024-01-15T01:32:31;2.72;;;1.45;;
55776;SDS011;54079;44.540;18.784;2024-01-15T01:34:57;2.95;;;1.38;;
55776;SDS011;54079;44.540;18.784;2024-01-15T01:37:23;2.78;;;1.30;;
55776;SDS011;54079;44.540;18.784;2024-01-15T01:39:49;2.38;;;1.38;;
55776;SDS011;54079;44.540;18.784;2024-01-15T01:42:15;2.30;;;1.20;;
55776;SDS011;54079;44.540;18.784;2024-01-15T01:44:41;2.60;;;1.40;;
55776;SDS011;54079;44.540;18.784;2024-01-15T01:47:07;2.65;;;1.42;;
55776;SDS011;54079;44.540;18.784;2024-01-15T01:49:33;2.55;;;1.55;;
55776;SDS011;54079;44.540;18.784;2024-01-15T01:52:04;3.15;;;1.80;;
55776;SDS011;54079;44.540;18.784;2024-01-15T01:54:32;4.85;;;2.03;;
55776;SDS011;54079;44.540;18.784;2024-01-15T01:56:59;3.78;;;1.65;;
55776;SDS011;54079;44.540;18.784;2024-01-15T01:59:27;1.85;;;1.40;;
55776;SDS011;54079;44.540;18.784;2024-01-15T02:01:55;3.20;;;1.50;;
55776;SDS011;54079;44.540;18.784;2024-01-15T02:04:23;2.83;;;1.60;;
55776;SDS011;54079;44.540;18.784;2024-01-15T02:06:50;3.10;;;1.80;;
55776;SDS011;54079;44.540;18.784;2024-01-15T02:09:17;2.05;;;1.23;;
55776;SDS011;54079;44.540;18.784;2024-01-15T02:11:43;2.13;;;1.58;;
55776;SDS011;54079;44.540;18.784;2024-01-15T02:14:12;2.55;;;1.33;;
55776;SDS011;54079;44.540;18.784;2024-01-15T02:16:38;1.42;;;1.08;;
55776;SDS011;54079;44.540;18.784;2024-01-15T02:19:04;3.38;;;1.80;;
55776;SDS011;54079;44.540;18.784;2024-01-15T02:21:33;2.22;;;1.17;;
55776;SDS011;54079;44.540;18.784;2024-01-15T02:23:59;3.63;;;2.15;;
55776;SDS011;54079;44.540;18.784;2024-01-15T02:26:25;2.42;;;1.55;;
55776;SDS011;54079;44.540;18.784;2024-01-15T02:28:51;1.98;;;1.20;;
55776;SDS011;54079;44.540;18.784;2024-01-15T02:31:18;2.17;;;1.10;;
55776;SDS011;54079;44.540;18.784;2024-01-15T02:33:43;2.25;;;1.50;;
55776;SDS011;54079;44.540;18.784;2024-01-15T02:36:11;1.98;;;1.02;;
55776;SDS011;54079;44.540;18.784;2024-01-15T02:38:37;1.90;;;1.00;;
55776;SDS011;54079;44.540;18.784;2024-01-15T02:41:03;2.13;;;1.08;;
55776;SDS011;54079;44.540;18.784;2024-01-15T02:43:29;2.53;;;1.20;;
55776;SDS011;54079;44.540;18.784;2024-01-15T02:45:55;2.03;;;1.08;;
55776;SDS011;54079;44.540;18.784;2024-01-15T02:48:21;1.95;;;1.00;;
55776;SDS011;54079;44.540;18.784;2024-01-15T02:50:47;2.00;;;1.20;;
55776;SDS011;54079;44.540;18.784;2024-01-15T02:53:13;2.28;;;1.20;;
55776;SDS011;54079;44.540;18.784;2024-01-15T02:55:39;2.33;;;1.15;;
55776;SDS011;54079;44.540;18.784;2024-01-15T02:58:05;2.85;;;1.38;;
55776;SDS011;54079;44.540;18.784;2024-01-15T03:00:31;2.85;;;1.55;;
55776;SDS011;54079;44.540;18.784;2024-01-15T03:02:57;2.03;;;1.13;;
55776;SDS011;54079;44.540;18.784;2024-01-15T03:05:23;1.80;;;1.45;;
55776;SDS011;54079;44.540;18.784;2024-01-15T03:07:49;2.20;;;1.10;;
55776;SDS011;54079;44.540;18.784;2024-01-15T03:10:15;1.77;;;1.10;;
55776;SDS011;54079;44.540;18.784;2024-01-15T03:12:41;1.33;;;1.20;;
55776;SDS011;54079;44.540;18.784;2024-01-15T03:15:07;1.77;;;1.38;;
55776;SDS011;54079;44.540;18.784;2024-01-15T03:17:33;2.05;;;0.88;;
55776;SDS011;54079;44.540;18.784;2024-01-15T03:19:59;2.60;;;1.42;;
55776;SDS011;54079;44.540;18.784;2024-01-15T03:22:25;2.78;;;1.33;;
55776;SDS011;54079;44.540;18.784;2024-01-15T03:24:52;2.15;;;1.20;;
55776;SDS011;54079;44.540;18.784;2024-01-15T03:27:18;1.52;;;0.57;;
55776;SDS011;54079;44.540;18.784;2024-01-15T03:29:44;1.50;;;0.63;;
55776;SDS011;54079;44.540;18.784;2024-01-15T03:32:10;1.85;;;1.02;;
55776;SDS011;54079;44.540;18.784;2024-01-15T03:34:36;1.70;;;0.98;;
55776;SDS011;54079;44.540;18.784;2024-01-15T03:37:02;1.88;;;1.00;;
55776;SDS011;54079;44.540;18.784;2024-01-15T03:39:29;1.20;;;0.80;;
55776;SDS011;54079;44.540;18.784;2024-01-15T03:41:55;1.70;;;1.25;;
55776;SDS011;54079;44.540;18.784;2024-01-15T03:44:21;2.22;;;1.13;;
55776;SDS011;54079;44.540;18.784;2024-01-15T03:46:47;1.92;;;0.82;;
55776;SDS011;54079;44.540;18.784;2024-01-15T03:49:13;1.83;;;1.08;;
55776;SDS011;54079;44.540;18.784;2024-01-15T03:51:40;1.27;;;0.80;;
55776;SDS011;54079;44.540;18.784;2024-01-15T03:57:04;1.30;;;0.77;;
55776;SDS011;54079;44.540;18.784;2024-01-15T03:59:30;1.55;;;0.90;;
55776;SDS011;54079;44.540;18.784;2024-01-15T04:01:56;1.90;;;0.88;;
55776;SDS011;54079;44.540;18.784;2024-01-15T04:04:22;1.08;;;0.70;;
55776;SDS011;54079;44.540;18.784;2024-01-15T04:06:48;0.68;;;0.57;;
55776;SDS011;54079;44.540;18.784;2024-01-15T04:09:14;1.80;;;1.02;;
55776;SDS011;54079;44.540;18.784;2024-01-15T04:11:40;1.45;;;0.80;;
55776;SDS011;54079;44.540;18.784;2024-01-15T04:14:06;1.38;;;0.70;;
55776;SDS011;54079;44.540;18.784;2024-01-15T04:16:32;2.20;;;0.68;;
55776;SDS011;54079;44.540;18.784;2024-01-15T04:18:58;1.85;;;0.88;;
55776;SDS011;54079;44.540;18.784;2024-01-15T04:21:24;2.13;;;0.80;;
55776;SDS011;54079;44.540;18.784;2024-01-15T04:23:50;1.50;;;1.13;;
55776;SDS011;54079;44.540;18.784;2024-01-15T04:26:16;0.80;;;0.55;;
55776;SDS011;54079;44.540;18.784;2024-01-15T04:28:42;1.73;;;1.00;;
55776;SDS011;54079;44.540;18.784;2024-01-15T04:31:08;1.45;;;0.93;;
55776;SDS011;54079;44.540;18.784;2024-01-15T04:33:34;1.88;;;1.23;;
55776;SDS011;54079;44.540;18.784;2024-01-15T04:36:03;2.47;;;1.58;;
55776;SDS011;54079;44.540;18.784;2024-01-15T04:38:30;0.93;;;0.52;;
55776;SDS011;54079;44.540;18.784;2024-01-15T04:40:57;1.15;;;0.60;;
55776;SDS011;54079;44.540;18.784;2024-01-15T04:43:23;0.95;;;0.43;;
55776;SDS011;54079;44.540;18.784;2024-01-15T04:45:49;0.82;;;0.45;;
55776;SDS011;54079;44.540;18.784;2024-01-15T04:48:15;0.63;;;0.40;;
55776;SDS011;54079;44.540;18.784;2024-01-15T04:50:41;1.23;;;0.60;;
55776;SDS011;54079;44.540;18.784;2024-01-15T04:53:07;1.25;;;0.80;;
55776;SDS011;54079;44.540;18.784;2024-01-15T04:55:33;1.23;;;0.60;;
55776;SDS011;54079;44.540;18.784;2024-01-15T04:57:58;0.90;;;0.50;;
55776;SDS011;54079;44.540;18.784;2024-01-15T05:00:24;1.58;;;0.80;;
55776;SDS011;54079;44.540;18.784;2024-01-15T05:02:50;1.23;;;0.60;;
55776;SDS011;54079;44.540;18.784;2024-01-15T05:05:16;0.85;;;0.38;;
55776;SDS011;54079;44.540;18.784;2024-01-15T05:07:42;0.80;;;0.32;;
55776;SDS011;54079;44.540;18.784;2024-01-15T05:10:08;1.65;;;0.93;;
55776;SDS011;54079;44.540;18.784;2024-01-15T05:12:34;1.30;;;0.85;;
55776;SDS011;54079;44.540;18.784;2024-01-15T05:15:01;2.30;;;0.50;;
55776;SDS011;54079;44.540;18.784;2024-01-15T05:17:27;0.65;;;0.38;;
55776;SDS011;54079;44.540;18.784;2024-01-15T05:19:53;1.40;;;0.70;;
55776;SDS011;54079;44.540;18.784;2024-01-15T05:22:19;1.52;;;0.63;;
55776;SDS011;54079;44.540;18.784;2024-01-15T05:24:46;2.03;;;0.80;;
55776;SDS011;54079;44.540;18.784;2024-01-15T05:27:12;1.65;;;0.90;;
55776;SDS011;54079;44.540;18.784;2024-01-15T05:29:38;1.48;;;0.70;;
55776;SDS011;54079;44.540;18.784;2024-01-15T05:32:05;1.58;;;0.50;;
55776;SDS011;54079;44.540;18.784;2024-01-15T05:34:31;1.50;;;0.65;;
55776;SDS011;54079;44.540;18.784;2024-01-15T05:36:57;3.50;;;0.73;;
55776;SDS011;54079;44.540;18.784;2024-01-15T05:39:23;2.28;;;0.95;;
55776;SDS011;54079;44.540;18.784;2024-01-15T05:41:49;1.77;;;0.90;;
55776;SDS011;54079;44.540;18.784;2024-01-15T05:44:15;3.22;;;1.40;;
55776;SDS011;54079;44.540;18.784;2024-01-15T05:46:41;2.63;;;1.10;;
55776;SDS011;54079;44.540;18.784;2024-01-15T05:49:07;2.15;;;0.98;;
55776;SDS011;54079;44.540;18.784;2024-01-15T05:51:33;1.73;;;1.10;;
55776;SDS011;54079;44.540;18.784;2024-01-15T05:53:59;1.05;;;0.47;;
55776;SDS011;54079;44.540;18.784;2024-01-15T05:56:25;0.68;;;0.35;;
55776;SDS011;54079;44.540;18.784;2024-01-15T05:58:51;1.48;;;0.43;;
55776;SDS011;54079;44.540;18.784;2024-01-15T06:01:17;3.78;;;1.15;;
55776;SDS011;54079;44.540;18.784;2024-01-15T06:03:43;2.65;;;1.50;;
55776;SDS011;54079;44.540;18.784;2024-01-15T06:06:09;2.22;;;1.33;;
55776;SDS011;54079;44.540;18.784;2024-01-15T06:08:35;1.90;;;0.75;;
55776;SDS011;54079;44.540;18.784;2024-01-15T06:11:01;1.27;;;0.80;;
55776;SDS011;54079;44.540;18.784;2024-01-15T06:13:28;1.63;;;0.70;;
55776;SDS011;54079;44.540;18.784;2024-01-15T06:15:54;1.85;;;0.77;;
55776;SDS011;54079;44.540;18.784;2024-01-15T06:18:20;1.25;;;0.70;;
55776;SDS011;54079;44.540;18.784;2024-01-15T06:20:46;3.40;;;2.00;;
55776;SDS011;54079;44.540;18.784;2024-01-15T06:23:12;2.70;;;1.13;;
55776;SDS011;54079;44.540;18.784;2024-01-15T06:28:03;3.17;;;1.80;;
55776;SDS011;54079;44.540;18.784;2024-01-15T06:30:30;2.13;;;1.20;;
55776;SDS011;54079;44.540;18.784;2024-01-15T06:32:56;2.60;;;1.80;;
55776;SDS011;54079;44.540;18.784;2024-01-15T06:35:22;3.15;;;1.38;;
55776;SDS011;54079;44.540;18.784;2024-01-15T06:37:48;2.95;;;1.77;;
55776;SDS011;54079;44.540;18.784;2024-01-15T06:40:14;2.33;;;1.25;;
55776;SDS011;54079;44.540;18.784;2024-01-15T06:42:40;4.15;;;1.42;;
55776;SDS011;54079;44.540;18.784;2024-01-15T06:45:07;4.65;;;2.28;;
55776;SDS011;54079;44.540;18.784;2024-01-15T06:47:33;2.67;;;1.42;;
55776;SDS011;54079;44.540;18.784;2024-01-15T06:49:59;2.25;;;1.00;;
55776;SDS011;54079;44.540;18.784;2024-01-15T06:52:25;1.98;;;1.33;;
55776;SDS011;54079;44.540;18.784;2024-01-15T06:54:51;3.83;;;2.13;;
55776;SDS011;54079;44.540;18.784;2024-01-15T06:57:17;2.25;;;1.65;;
55776;SDS011;54079;44.540;18.784;2024-01-15T06:59:45;2.88;;;1.20;;
55776;SDS011;54079;44.540;18.784;2024-01-15T07:02:11;1.70;;;1.17;;
55776;SDS011;54079;44.540;18.784;2024-01-15T07:04:37;2.85;;;1.27;;
55776;SDS011;54079;44.540;18.784;2024-01-15T07:07:03;3.60;;;1.98;;
55776;SDS011;54079;44.540;18.784;2024-01-15T07:09:29;2.22;;;1.30;;
55776;SDS011;54079;44.540;18.784;2024-01-15T07:11:55;3.13;;;1.63;;
55776;SDS011;54079;44.540;18.784;2024-01-15T07:14:23;2.92;;;1.92;;
55776;SDS011;54079;44.540;18.784;2024-01-15T07:16:49;2.33;;;1.63;;
55776;SDS011;54079;44.540;18.784;2024-01-15T07:19:15;2.97;;;1.20;;
55776;SDS011;54079;44.540;18.784;2024-01-15T07:21:41;2.88;;;2.13;;
55776;SDS011;54079;44.540;18.784;2024-01-15T07:24:08;1.58;;;1.23;;
55776;SDS011;54079;44.540;18.784;2024-01-15T07:26:35;5.20;;;3.05;;
55776;SDS011;54079;44.540;18.784;2024-01-15T07:29:01;5.50;;;2.92;;
55776;SDS011;54079;44.540;18.784;2024-01-15T07:31:28;4.32;;;2.60;;
55776;SDS011;54079;44.540;18.784;2024-01-15T07:33:54;4.32;;;2.58;;
55776;SDS011;54079;44.540;18.784;2024-01-15T07:36:20;3.85;;;2.03;;
55776;SDS011;54079;44.540;18.784;2024-01-15T07:38:46;3.72;;;2.92;;
55776;SDS011;54079;44.540;18.784;2024-01-15T07:41:13;8.07;;;5.00;;
55776;SDS011;54079;44.540;18.784;2024-01-15T07:43:39;6.35;;;3.75;;
55776;SDS011;54079;44.540;18.784;2024-01-15T07:46:05;3.33;;;2.35;;
55776;SDS011;54079;44.540;18.784;2024-01-15T07:48:32;4.20;;;2.90;;
55776;SDS011;54079;44.540;18.784;2024-01-15T07:50:58;4.28;;;2.65;;
55776;SDS011;54079;44.540;18.784;2024-01-15T07:53:24;5.25;;;3.38;;
55776;SDS011;54079;44.540;18.784;2024-01-15T07:55:50;6.10;;;3.88;;
55776;SDS011;54079;44.540;18.784;2024-01-15T07:58:16;5.85;;;3.30;;
55776;SDS011;54079;44.540;18.784;2024-01-15T08:00:42;5.30;;;3.53;;
55776;SDS011;54079;44.540;18.784;2024-01-15T08:03:10;2.88;;;1.60;;
55776;SDS011;54079;44.540;18.784;2024-01-15T08:05:37;3.38;;;2.53;;
55776;SDS011;54079;44.540;18.784;2024-01-15T08:08:03;6.95;;;3.92;;
55776;SDS011;54079;44.540;18.784;2024-01-15T08:10:29;6.10;;;2.45;;
55776;SDS011;54079;44.540;18.784;2024-01-15T08:12:55;3.10;;;2.30;;
55776;SDS011;54079;44.540;18.784;2024-01-15T08:15:21;2.63;;;1.80;;
55776;SDS011;54079;44.540;18.784;2024-01-15T08:17:47;2.90;;;2.05;;
55776;SDS011;54079;44.540;18.784;2024-01-15T08:20:13;5.25;;;2.90;;
55776;SDS011;54079;44.540;18.784;2024-01-15T08:22:41;2.60;;;1.63;;
55776;SDS011;54079;44.540;18.784;2024-01-15T08:25:07;4.82;;;2.92;;
55776;SDS011;54079;44.540;18.784;2024-01-15T08:27:34;4.68;;;3.22;;
55776;SDS011;54079;44.540;18.784;2024-01-15T08:30:00;3.42;;;1.67;;
55776;SDS011;54079;44.540;18.784;2024-01-15T08:32:26;2.83;;;2.00;;
55776;SDS011;54079;44.540;18.784;2024-01-15T08:34:52;4.57;;;2.63;;
55776;SDS011;54079;44.540;18.784;2024-01-15T08:37:18;3.20;;;2.13;;
55776;SDS011;54079;44.540;18.784;2024-01-15T08:39:44;6.50;;;3.50;;
55776;SDS011;54079;44.540;18.784;2024-01-15T08:42:10;3.05;;;1.73;;
55776;SDS011;54079;44.540;18.784;2024-01-15T08:44:36;4.15;;;2.80;;
55776;SDS011;54079;44.540;18.784;2024-01-15T08:47:04;5.10;;;3.03;;
55776;SDS011;54079;44.540;18.784;2024-01-15T08:49:30;3.53;;;2.50;;
55776;SDS011;54079;44.540;18.784;2024-01-15T08:51:56;2.55;;;1.70;;
55776;SDS011;54079;44.540;18.784;2024-01-15T08:54:23;3.20;;;2.15;;
55776;SDS011;54079;44.540;18.784;2024-01-15T08:56:49;2.38;;;1.27;;
55776;SDS011;54079;44.540;18.784;2024-01-15T08:59:15;2.30;;;1.50;;
55776;SDS011;54079;44.540;18.784;2024-01-15T09:01:41;3.20;;;1.63;;
55776;SDS011;54079;44.540;18.784;2024-01-15T09:04:07;3.28;;;2.53;;
55776;SDS011;54079;44.540;18.784;2024-01-15T09:06:33;3.05;;;1.88;;
55776;SDS011;54079;44.540;18.784;2024-01-15T09:08:59;2.70;;;1.77;;
55776;SDS011;54079;44.540;18.784;2024-01-15T09:11:25;5.47;;;3.45;;
55776;SDS011;54079;44.540;18.784;2024-01-15T09:13:51;4.38;;;3.22;;
55776;SDS011;54079;44.540;18.784;2024-01-15T09:16:17;2.85;;;2.28;;
55776;SDS011;54079;44.540;18.784;2024-01-15T09:18:43;3.13;;;2.13;;
55776;SDS011;54079;44.540;18.784;2024-01-15T09:21:09;3.45;;;2.40;;
55776;SDS011;54079;44.540;18.784;2024-01-15T09:23:35;3.30;;;1.88;;
55776;SDS011;54079;44.540;18.784;2024-01-15T09:26:01;3.00;;;2.35;;
55776;SDS011;54079;44.540;18.784;2024-01-15T09:28:27;4.20;;;2.97;;
55776;SDS011;54079;44.540;18.784;2024-01-15T09:30:53;4.32;;;1.90;;
55776;SDS011;54079;44.540;18.784;2024-01-15T09:33:19;3.10;;;2.33;;
55776;SDS011;54079;44.540;18.784;2024-01-15T09:35:45;5.65;;;3.05;;
55776;SDS011;54079;44.540;18.784;2024-01-15T09:38:11;3.90;;;2.67;;
55776;SDS011;54079;44.540;18.784;2024-01-15T09:40:38;4.78;;;3.42;;
55776;SDS011;54079;44.540;18.784;2024-01-15T09:43:08;3.25;;;1.80;;
55776;SDS011;54079;44.540;18.784;2024-01-15T09:45:35;5.32;;;2.78;;
55776;SDS011;54079;44.540;18.784;2024-01-15T09:48:01;9.20;;;5.65;;
55776;SDS011;54079;44.540;18.784;2024-01-15T09:50:27;6.43;;;4.25;;
55776;SDS011;54079;44.540;18.784;2024-01-15T09:52:54;4.65;;;2.50;;
55776;SDS011;54079;44.540;18.784;2024-01-15T09:55:22;3.85;;;2.13;;
55776;SDS011;54079;44.540;18.784;2024-01-15T09:57:48;4.15;;;3.00;;
55776;SDS011;54079;44.540;18.784;2024-01-15T10:00:18;3.92;;;2.08;;
55776;SDS011;54079;44.540;18.784;2024-01-15T10:02:44;5.20;;;3.47;;
55776;SDS011;54079;44.540;18.784;2024-01-15T10:05:10;4.22;;;2.10;;
55776;SDS011;54079;44.540;18.784;2024-01-15T10:07:37;8.70;;;5.93;;
55776;SDS011;54079;44.540;18.784;2024-01-15T10:10:05;8.80;;;5.53;;
55776;SDS011;54079;44.540;18.784;2024-01-15T10:12:32;3.40;;;2.83;;
55776;SDS011;54079;44.540;18.784;2024-01-15T10:14:59;4.00;;;3.00;;
55776;SDS011;54079;44.540;18.784;2024-01-15T10:17:26;7.32;;;4.20;;
55776;SDS011;54079;44.540;18.784;2024-01-15T10:19:56;9.68;;;5.38;;
55776;SDS011;54079;44.540;18.784;2024-01-15T10:22:22;9.30;;;7.03;;
55776;SDS011;54079;44.540;18.784;2024-01-15T10:24:48;6.78;;;4.70;;
55776;SDS011;54079;44.540;18.784;2024-01-15T10:27:15;3.75;;;2.28;;
55776;SDS011;54079;44.540;18.784;2024-01-15T10:29:42;5.50;;;3.67;;
55776;SDS011;54079;44.540;18.784;2024-01-15T10:32:08;7.32;;;4.85;;
55776;SDS011;54079;44.540;18.784;2024-01-15T10:34:37;6.53;;;3.97;;
55776;SDS011;54079;44.540;18.784;2024-01-15T10:37:08;5.35;;;3.47;;
55776;SDS011;54079;44.540;18.784;2024-01-15T10:39:34;8.10;;;4.63;;
55776;SDS011;54079;44.540;18.784;2024-01-15T10:44:37;4.43;;;3.17;;
55776;SDS011;54079;44.540;18.784;2024-01-15T10:47:04;7.05;;;4.03;;
55776;SDS011;54079;44.540;18.784;2024-01-15T10:49:30;2.95;;;1.80;;
55776;SDS011;54079;44.540;18.784;2024-01-15T10:51:56;2.45;;;1.65;;
55776;SDS011;54079;44.540;18.784;2024-01-15T10:54:22;3.60;;;2.03;;
55776;SDS011;54079;44.540;18.784;2024-01-15T10:56:49;5.32;;;3.42;;
55776;SDS011;54079;44.540;18.784;2024-01-15T10:59:16;4.30;;;2.80;;
55776;SDS011;54079;44.540;18.784;2024-01-15T11:01:45;3.25;;;2.15;;
55776;SDS011;54079;44.540;18.784;2024-01-15T11:04:11;4.80;;;3.42;;
55776;SDS011;54079;44.540;18.784;2024-01-15T11:06:45;6.03;;;3.78;;
55776;SDS011;54079;44.540;18.784;2024-01-15T11:09:12;4.97;;;3.85;;
55776;SDS011;54079;44.540;18.784;2024-01-15T11:11:41;4.38;;;2.70;;
55776;SDS011;54079;44.540;18.784;2024-01-15T11:14:10;2.60;;;1.70;;
55776;SDS011;54079;44.540;18.784;2024-01-15T11:16:55;3.15;;;1.50;;
55776;SDS011;54079;44.540;18.784;2024-01-15T11:19:22;5.75;;;3.28;;
55776;SDS011;54079;44.540;18.784;2024-01-15T11:21:48;5.63;;;3.78;;
55776;SDS011;54079;44.540;18.784;2024-01-15T11:24:35;7.20;;;3.90;;
55776;SDS011;54079;44.540;18.784;2024-01-15T11:27:03;5.40;;;3.50;;
55776;SDS011;54079;44.540;18.784;2024-01-15T11:29:34;3.92;;;2.65;;
55776;SDS011;54079;44.540;18.784;2024-01-15T11:32:04;6.63;;;4.10;;
55776;SDS011;54079;44.540;18.784;2024-01-15T11:43:02;2.33;;;1.33;;
55776;SDS011;54079;44.540;18.784;2024-01-15T11:45:27;4.05;;;2.25;;
55776;SDS011;54079;44.540;18.784;2024-01-15T11:50:48;3.35;;;2.55;;
55776;SDS011;54079;44.540;18.784;2024-01-15T11:55:47;3.22;;;2.42;;
55776;SDS011;54079;44.540;18.784;2024-01-15T11:58:16;4.65;;;2.70;;
55776;SDS011;54079;44.540;18.784;2024-01-15T12:00:47;2.92;;;2.10;;
55776;SDS011;54079;44.540;18.784;2024-01-15T12:03:17;4.07;;;2.20;;
55776;SDS011;54079;44.540;18.784;2024-01-15T12:05:49;2.10;;;1.40;;
55776;SDS011;54079;44.540;18.784;2024-01-15T12:08:23;2.30;;;1.40;;
55776;SDS011;54079;44.540;18.784;2024-01-15T12:10:49;4.22;;;2.72;;
55776;SDS011;54079;44.540;18.784;2024-01-15T12:13:16;3.00;;;1.67;;
55776;SDS011;54079;44.540;18.784;2024-01-15T12:15:46;3.28;;;2.08;;
55776;SDS011;54079;44.540;18.784;2024-01-15T12:18:14;7.15;;;4.57;;
55776;SDS011;54079;44.540;18.784;2024-01-15T12:20:41;2.03;;;1.30;;
55776;SDS011;54079;44.540;18.784;2024-01-15T12:23:08;7.43;;;5.28;;
55776;SDS011;54079;44.540;18.784;2024-01-15T12:25:35;11.35;;;8.20;;
55776;SDS011;54079;44.540;18.784;2024-01-15T12:28:02;5.40;;;3.42;;
55776;SDS011;54079;44.540;18.784;2024-01-15T12:30:29;5.22;;;3.85;;
55776;SDS011;54079;44.540;18.784;2024-01-15T12:33:01;6.00;;;4.55;;
55776;SDS011;54079;44.540;18.784;2024-01-15T12:35:29;5.22;;;3.75;;
55776;SDS011;54079;44.540;18.784;2024-01-15T12:37:55;5.45;;;3.67;;
55776;SDS011;54079;44.540;18.784;2024-01-15T12:40:22;4.45;;;3.28;;
55776;SDS011;54079;44.540;18.784;2024-01-15T12:42:49;2.85;;;2.08;;
55776;SDS011;54079;44.540;18.784;2024-01-15T12:45:15;2.05;;;1.38;;
55776;SDS011;54079;44.540;18.784;2024-01-15T12:47:41;6.63;;;3.15;;
55776;SDS011;54079;44.540;18.784;2024-01-15T12:50:11;3.75;;;2.40;;
55776;SDS011;54079;44.540;18.784;2024-01-15T12:52:39;3.20;;;2.33;;
55776;SDS011;54079;44.540;18.784;2024-01-15T12:55:07;5.70;;;4.22;;
55776;SDS011;54079;44.540;18.784;2024-01-15T12:57:36;4.22;;;2.85;;
55776;SDS011;54079;44.540;18.784;2024-01-15T13:00:06;3.78;;;2.67;;
55776;SDS011;54079;44.540;18.784;2024-01-15T13:02:41;6.70;;;4.57;;
55776;SDS011;54079;44.540;18.784;2024-01-15T13:05:08;6.70;;;4.43;;
55776;SDS011;54079;44.540;18.784;2024-01-15T13:07:36;5.70;;;4.20;;
55776;SDS011;54079;44.540;18.784;2024-01-15T13:10:02;8.55;;;6.25;;
55776;SDS011;54079;44.540;18.784;2024-01-15T13:12:29;5.22;;;3.45;;
55776;SDS011;54079;44.540;18.784;2024-01-15T13:14:55;7.85;;;4.60;;
55776;SDS011;54079;44.540;18.784;2024-01-15T13:17:23;6.57;;;4.72;;
55776;SDS011;54079;44.540;18.784;2024-01-15T13:19:49;4.18;;;3.10;;
55776;SDS011;54079;44.540;18.784;2024-01-15T13:22:15;5.65;;;3.22;;
55776;SDS011;54079;44.540;18.784;2024-01-15T13:24:42;4.57;;;3.65;;
55776;SDS011;54079;44.540;18.784;2024-01-15T13:27:08;3.90;;;2.15;;
55776;SDS011;54079;44.540;18.784;2024-01-15T13:29:34;4.28;;;2.78;;
55776;SDS011;54079;44.540;18.784;2024-01-15T13:32:00;4.60;;;3.20;;
55776;SDS011;54079;44.540;18.784;2024-01-15T13:34:26;2.78;;;2.25;;
55776;SDS011;54079;44.540;18.784;2024-01-15T13:36:52;5.90;;;2.58;;
55776;SDS011;54079;44.540;18.784;2024-01-15T13:39:18;3.78;;;2.35;;
55776;SDS011;54079;44.540;18.784;2024-01-15T13:41:48;3.53;;;2.58;;
55776;SDS011;54079;44.540;18.784;2024-01-15T13:44:15;3.80;;;2.47;;
55776;SDS011;54079;44.540;18.784;2024-01-15T13:46:41;2.60;;;2.00;;
55776;SDS011;54079;44.540;18.784;2024-01-15T13:49:07;2.47;;;1.30;;
55776;SDS011;54079;44.540;18.784;2024-01-15T13:51:34;1.60;;;0.73;;
55776;SDS011;54079;44.540;18.784;2024-01-15T13:54:02;2.50;;;1.23;;
55776;SDS011;54079;44.540;18.784;2024-01-15T13:56:31;5.22;;;3.30;;
55776;SDS011;54079;44.540;18.784;2024-01-15T13:58:58;4.22;;;2.60;;
55776;SDS011;54079;44.540;18.784;2024-01-15T14:01:24;5.28;;;2.90;;
55776;SDS011;54079;44.540;18.784;2024-01-15T14:03:50;4.88;;;3.50;;
55776;SDS011;54079;44.540;18.784;2024-01-15T14:06:16;2.17;;;1.67;;
55776;SDS011;54079;44.540;18.784;2024-01-15T14:08:42;3.10;;;2.13;;
55776;SDS011;54079;44.540;18.784;2024-01-15T14:11:08;3.53;;;2.17;;
55776;SDS011;54079;44.540;18.784;2024-01-15T14:13:35;2.78;;;2.17;;
55776;SDS011;54079;44.540;18.784;2024-01-15T14:16:01;2.10;;;0.90;;
55776;SDS011;54079;44.540;18.784;2024-01-15T14:18:27;3.33;;;2.03;;
55776;SDS011;54079;44.540;18.784;2024-01-15T14:20:53;2.50;;;1.30;;
55776;SDS011;54079;44.540;18.784;2024-01-15T14:23:20;2.55;;;1.48;;
55776;SDS011;54079;44.540;18.784;2024-01-15T14:25:46;2.60;;;1.38;;
55776;SDS011;54079;44.540;18.784;2024-01-15T14:28:12;3.58;;;2.25;;
55776;SDS011;54079;44.540;18.784;2024-01-15T14:30:38;8.23;;;4.93;;
55776;SDS011;54079;44.540;18.784;2024-01-15T14:33:04;4.50;;;3.17;;
55776;SDS011;54079;44.540;18.784;2024-01-15T14:35:30;3.97;;;2.38;;
55776;SDS011;54079;44.540;18.784;2024-01-15T14:37:56;4.65;;;2.85;;
55776;SDS011;54079;44.540;18.784;2024-01-15T14:40:25;3.95;;;2.38;;
55776;SDS011;54079;44.540;18.784;2024-01-15T14:42:51;4.00;;;2.58;;
55776;SDS011;54079;44.540;18.784;2024-01-15T14:45:18;3.83;;;2.13;;
55776;SDS011;54079;44.540;18.784;2024-01-15T14:47:44;4.22;;;2.80;;
55776;SDS011;54079;44.540;18.784;2024-01-15T14:50:10;6.90;;;4.28;;
55776;SDS011;54079;44.540;18.784;2024-01-15T14:52:37;3.85;;;2.60;;